Hunter Army Air Field
KSVN : now visible

Airfield :











YOU CAN JOIN US ON...

 
LOGIN :

Register | Disclaimer

   EN    FR    IT 

 









Legend :    VFR   Marginal VFR   IFR   Intensive IFR   Very Intensive IFR
Visi :
Ceiling :
>= 8 km
>= 3000ft
5 to 8 km
1000 to 3000 ft
1500m to 5 km
500 to 1000 ft
800 to 1500m
200 to 500 ft
< 800m
< 200 ft
Symbols :   Thunderstorms  Fog  Heavy snow  Heavy precipitations  Wind > 20 kt






- Airport Elevation : 41 ft


KSVN - Hunter Army Air Field

CURRENT METAR :
  • 120007Z AUTO 01007G18KT 10SM FEW060 BKN095 BKN120 12/06 A3041 RMK AO2 RAE07 PRESRR SLPNO $

EXPIRED METARs :
  • 112356Z AUTO 02013G17KT 10SM -RA FEW060 OVC100 13/05 A3038 RMK AO2 RAB50 SLPNO P0000 60000 T01270054 10177 20127 50015 $
  • 112256Z AUTO 02007KT 10SM SCT070 SCT120 13/05 A3039 RMK AO2 RAB17E33 SLPNO P0000 T01340051 $
  • 112233Z AUTO 01011KT 10SM BKN070 BKN100 OVC110 14/05 A3039 RMK AO2 RAB17E33 PRESRR SLPNO $
  • 112217Z AUTO 36011KT 10SM -RA BKN070 OVC110 14/05 A3037 RMK AO2 RAB17 SLPNO $
  • 112156Z AUTO 02009KT 10SM BKN070 BKN090 15/06 A3036 RMK AO2 SLP284 T01460057 $

TAF TAF KSVN
Valid from the 11 at 21:00 until the 13 at 03:00 UTC


112100Z 1121/1303 01010G15KT 9999 SCT050 QNH3030INS
BECMG 1202/1203 03012KT 9999 FEW085 QNH3044INS
BECMG 1214/1215 05015G25KT 9999 SCT030 BKN065 QNH3044INS
BECMG 1220/1221 05015G20KT 9999 BKN025 QNH3037INS
BECMG 1302/1303 05012G18KT 9999 OVC020 520352 QNH3035INS TX18/1122Z TN06/1211Z



MET'MAP, your aeronautical weather chart ! - Copyright ORBIFLY December 2007 - Disclaimer

ORBIFLY MET'MAP TEAM :

Programming & Development : Alexandra Zaïnal
Concept & original design : Baudouin d'Aumeries
Assistance for programming : Marc-Olivier Méhu
Technical & hardware support : Manuel Goepfert

Contact : metmap@orbifly.com




SOURCES & CREDITS :

   NOAA       Earth
Advisory